createdAt,value
2022-09-10T00:00:58.933Z,31.13
2022-09-10T00:03:25.646Z,30.03
2022-09-10T00:05:52.357Z,32.63
2022-09-10T00:08:19.396Z,33.47
2022-09-10T00:10:49.790Z,34.73
2022-09-10T00:13:17.314Z,29.50
2022-09-10T00:15:45.409Z,28.83
2022-09-10T00:18:12.273Z,26.80
2022-09-10T00:20:47.965Z,26.83
2022-09-10T00:23:15.763Z,28.20
2022-09-10T00:25:42.880Z,21.27
2022-09-10T00:28:09.648Z,21.70
2022-09-10T00:30:42.742Z,21.07
2022-09-10T00:33:09.992Z,17.03
2022-09-10T00:35:36.973Z,14.70
2022-09-10T00:38:04.047Z,14.57
2022-09-10T00:40:31.630Z,12.37
2022-09-10T00:42:58.520Z,15.80
2022-09-10T00:45:29.388Z,13.23
2022-09-10T00:47:57.215Z,16.20
2022-09-10T00:50:25.702Z,18.90
2022-09-10T00:52:52.738Z,20.23
2022-09-10T00:55:19.544Z,22.07
2022-09-10T00:57:47.263Z,23.90
2022-09-10T01:00:14.171Z,22.27
2022-09-10T01:02:41.851Z,21.00
2022-09-10T01:05:09.217Z,24.07
2022-09-10T01:07:36.433Z,22.63
2022-09-10T01:10:06.902Z,21.17
2022-09-10T01:12:49.100Z,21.20
2022-09-10T01:15:16.234Z,21.20
2022-09-10T01:17:52.021Z,23.80
2022-09-10T01:20:48.153Z,24.53
2022-09-10T01:23:33.752Z,28.30
2022-09-10T01:26:20.071Z,26.53
2022-09-10T01:28:49.664Z,32.17
2022-09-10T01:31:26.518Z,25.13
2022-09-10T01:33:57.377Z,30.87
2022-09-10T01:36:25.248Z,30.30
2022-09-10T01:38:52.327Z,29.97
2022-09-10T01:41:21.301Z,35.00
2022-09-10T01:43:47.981Z,33.00
2022-09-10T01:46:27.249Z,36.47
2022-09-10T01:49:14.066Z,24.43
2022-09-10T01:51:46.955Z,33.67
2022-09-10T01:54:26.367Z,34.27
2022-09-10T01:57:18.562Z,33.53
2022-09-10T02:00:01.378Z,29.23
2022-09-10T02:02:29.979Z,33.13
2022-09-10T02:04:56.571Z,30.80
2022-09-10T02:07:24.197Z,28.90
2022-09-10T02:09:51.903Z,25.17
2022-09-10T02:12:19.706Z,22.77
2022-09-10T02:14:50.965Z,40.20
2022-09-10T02:17:36.542Z,34.60
2022-09-10T02:20:04.502Z,37.00
2022-09-10T02:22:31.863Z,39.30
2022-09-10T02:24:58.718Z,33.73
2022-09-10T02:27:25.342Z,37.67
2022-09-10T02:29:52.122Z,26.37
2022-09-10T02:32:18.769Z,27.63
2022-09-10T02:34:48.300Z,23.50
2022-09-10T02:37:16.902Z,27.30
2022-09-10T02:39:44.961Z,29.03
2022-09-10T02:42:13.202Z,24.33
2022-09-10T02:44:39.905Z,24.43
2022-09-10T02:47:06.630Z,30.60
2022-09-10T02:49:35.433Z,30.33
2022-09-10T02:52:04.838Z,25.63
2022-09-10T02:54:31.552Z,27.37
2022-09-10T02:56:58.305Z,22.73
2022-09-10T02:59:25.151Z,25.53
2022-09-10T03:01:51.937Z,22.27
2022-09-10T03:04:18.706Z,25.57
2022-09-10T03:06:49.327Z,25.67
2022-09-10T03:09:16.694Z,24.50
2022-09-10T03:11:43.318Z,23.77
2022-09-10T03:14:10.206Z,22.77
2022-09-10T03:16:37.450Z,22.77
2022-09-10T03:19:06.340Z,23.50
2022-09-10T03:21:34.410Z,23.97
2022-09-10T03:24:01.282Z,22.97
2022-09-10T03:26:30.509Z,24.00
2022-09-10T03:28:57.697Z,27.77
2022-09-10T03:31:27.501Z,27.90
2022-09-10T03:33:54.734Z,25.77
2022-09-10T03:36:22.883Z,31.00
2022-09-10T03:38:50.442Z,30.70
2022-09-10T03:41:17.245Z,27.90
2022-09-10T03:43:44.771Z,33.73
2022-09-10T03:46:12.235Z,31.53
2022-09-10T03:48:43.726Z,30.37
2022-09-10T03:51:11.186Z,35.10
2022-09-10T03:53:38.970Z,32.93
2022-09-10T03:56:07.487Z,34.57
2022-09-10T03:58:35.848Z,33.40
2022-09-10T04:01:03.906Z,27.40
2022-09-10T04:03:33.476Z,31.53
2022-09-10T04:06:00.277Z,29.63
2022-09-10T04:08:27.002Z,32.57
2022-09-10T04:10:55.169Z,30.23
2022-09-10T04:13:23.117Z,36.60
2022-09-10T04:15:49.820Z,32.23
2022-09-10T04:18:16.757Z,31.67
2022-09-10T04:20:47.105Z,34.03
2022-09-10T04:23:15.346Z,25.37
2022-09-10T04:25:42.603Z,29.13
2022-09-10T04:28:09.891Z,29.57
2022-09-10T04:30:37.811Z,30.40
2022-09-10T04:33:04.739Z,30.97
2022-09-10T04:35:32.878Z,44.20
2022-09-10T04:38:02.176Z,32.37
2022-09-10T04:40:29.325Z,26.93
2022-09-10T04:42:56.661Z,28.27
2022-09-10T04:45:23.548Z,29.77
2022-09-10T04:47:51.265Z,36.10
2022-09-10T04:50:17.945Z,29.33
2022-09-10T04:53:04.568Z,25.00
2022-09-10T04:55:31.398Z,26.27
2022-09-10T04:57:58.096Z,28.60
2022-09-10T05:00:26.644Z,29.37
2022-09-10T05:02:53.908Z,28.20
2022-09-10T05:05:20.801Z,27.10
2022-09-10T05:07:48.718Z,30.40
2022-09-10T05:10:15.423Z,30.47
2022-09-10T05:12:42.364Z,25.93
2022-09-10T05:15:10.998Z,26.27
2022-09-10T05:17:37.673Z,28.03
2022-09-10T05:20:07.159Z,23.63
2022-09-10T05:22:40.771Z,26.87
2022-09-10T05:25:08.279Z,22.17
2022-09-10T05:27:34.972Z,24.87
2022-09-10T05:30:02.290Z,21.97
2022-09-10T05:32:30.188Z,25.27
2022-09-10T05:34:57.139Z,25.73
2022-09-10T05:37:23.856Z,21.83
2022-09-10T05:39:50.705Z,19.77
2022-09-10T05:42:18.761Z,21.93
2022-09-10T05:44:45.703Z,18.93
2022-09-10T05:47:12.329Z,19.33
2022-09-10T05:49:39.324Z,19.43
2022-09-10T05:52:06.232Z,23.50
2022-09-10T05:54:35.331Z,17.17
2022-09-10T05:57:02.014Z,18.63
2022-09-10T05:59:30.673Z,16.40
2022-09-10T06:01:58.376Z,18.73
2022-09-10T06:04:25.807Z,16.53
2022-09-10T06:06:53.395Z,14.27
2022-09-10T06:09:20.520Z,14.53
2022-09-10T06:11:54.432Z,16.33
2022-09-10T06:14:22.570Z,17.73
2022-09-10T06:16:50.029Z,14.57
2022-09-10T06:19:16.809Z,15.57
2022-09-10T06:21:43.474Z,13.13
2022-09-10T06:24:11.245Z,14.67
2022-09-10T06:26:41.657Z,15.00
2022-09-10T06:29:12.509Z,13.00
2022-09-10T06:31:40.896Z,16.00
2022-09-10T06:34:08.222Z,14.67
2022-09-10T06:36:35.244Z,13.77
2022-09-10T06:39:03.590Z,12.10
2022-09-10T06:41:38.760Z,11.60
2022-09-10T06:44:10.478Z,14.83
2022-09-10T06:49:31.491Z,14.00
2022-09-10T06:52:02.095Z,13.90
2022-09-10T06:54:29.302Z,15.23
2022-09-10T06:57:01.463Z,15.43
2022-09-10T06:59:31.439Z,15.50
2022-09-10T07:01:58.430Z,15.03
2022-09-10T07:04:25.427Z,14.63
2022-09-10T07:06:52.277Z,14.93
2022-09-10T07:09:18.970Z,16.63
2022-09-10T07:11:55.108Z,14.87
2022-09-10T07:14:21.824Z,13.27
2022-09-10T07:16:51.454Z,11.03
2022-09-10T07:19:20.975Z,15.27
2022-09-10T07:21:50.716Z,17.17
2022-09-10T07:24:17.542Z,12.97
2022-09-10T07:26:59.506Z,12.80
2022-09-10T07:29:26.551Z,12.67
2022-09-10T07:31:53.896Z,11.80
2022-09-10T07:34:24.775Z,13.23
2022-09-10T07:36:52.609Z,11.07
2022-09-10T07:39:25.349Z,13.27
2022-09-10T07:41:53.509Z,12.40
2022-09-10T07:44:24.149Z,12.70
2022-09-10T07:46:52.014Z,12.97
2022-09-10T07:49:20.791Z,13.40
2022-09-10T07:51:59.079Z,13.53
2022-09-10T07:54:30.885Z,12.83
2022-09-10T07:56:58.198Z,13.23
2022-09-10T07:59:26.798Z,11.67
2022-09-10T08:02:00.278Z,14.73
2022-09-10T08:04:36.491Z,13.37
2022-09-10T08:07:05.887Z,11.37
2022-09-10T08:09:34.989Z,12.43
2022-09-10T08:12:03.160Z,12.03
2022-09-10T08:14:30.078Z,11.60
2022-09-10T08:16:56.950Z,13.13
2022-09-10T08:19:23.872Z,16.40
2022-09-10T08:21:52.119Z,14.37
2022-09-10T08:24:27.758Z,14.17
2022-09-10T08:26:54.732Z,13.93
2022-09-10T08:29:22.509Z,13.53
2022-09-10T08:31:50.798Z,14.40
2022-09-10T08:34:23.071Z,16.27
2022-09-10T08:36:57.476Z,18.13
2022-09-10T08:39:24.305Z,15.53
2022-09-10T08:41:57.424Z,13.73
2022-09-10T08:44:43.050Z,14.47
2022-09-10T08:47:10.108Z,14.80
2022-09-10T08:49:38.553Z,14.73
2022-09-10T08:52:17.384Z,14.73
2022-09-10T08:54:52.382Z,14.17
2022-09-10T08:57:30.981Z,15.23
2022-09-10T08:59:57.906Z,15.20
2022-09-10T09:02:47.900Z,17.03
2022-09-10T09:05:23.093Z,21.77
2022-09-10T09:07:53.354Z,18.27
2022-09-10T09:10:20.890Z,19.17
2022-09-10T09:12:50.472Z,18.90
2022-09-10T09:15:19.503Z,17.93
2022-09-10T09:17:53.133Z,19.73
2022-09-10T09:20:32.956Z,19.53
2022-09-10T09:23:13.804Z,19.40
2022-09-10T09:25:40.809Z,19.83
2022-09-10T09:28:10.349Z,18.73
2022-09-10T09:30:39.405Z,19.33
2022-09-10T09:33:18.744Z,19.63
2022-09-10T09:35:49.152Z,20.57
2022-09-10T09:38:24.332Z,23.30
2022-09-10T09:40:56.307Z,22.80
2022-09-10T09:43:42.780Z,22.43
2022-09-10T09:46:15.209Z,22.73
2022-09-10T09:48:44.744Z,21.80
2022-09-10T09:51:13.750Z,21.47
2022-09-10T09:53:42.340Z,18.13
2022-09-10T09:56:12.973Z,19.27
2022-09-10T09:58:40.498Z,18.90
2022-09-10T10:01:09.855Z,19.87
2022-09-10T10:03:48.484Z,18.47
2022-09-10T10:06:15.586Z,19.43
2022-09-10T10:08:44.325Z,18.37
2022-09-10T10:11:12.846Z,17.93
2022-09-10T10:13:43.311Z,18.13
2022-09-10T10:16:22.312Z,21.10
2022-09-10T10:18:49.114Z,22.40
2022-09-10T10:21:16.970Z,25.23
2022-09-10T10:23:44.037Z,24.23
2022-09-10T10:26:30.598Z,22.93
2022-09-10T10:28:59.301Z,21.30
2022-09-10T10:31:46.294Z,20.73
2022-09-10T10:34:19.095Z,25.67
2022-09-10T10:36:53.461Z,24.20
2022-09-10T10:39:24.434Z,19.80
2022-09-10T10:42:04.538Z,23.43
2022-09-10T10:44:37.670Z,22.07
2022-09-10T10:47:23.484Z,22.43
2022-09-10T10:50:11.908Z,20.80
2022-09-10T10:52:42.090Z,22.70
2022-09-10T10:55:24.434Z,20.13
2022-09-10T10:57:51.371Z,20.87
2022-09-10T11:00:19.274Z,24.40
2022-09-10T11:02:53.194Z,24.60
2022-09-10T11:05:20.220Z,23.03
2022-09-10T11:07:47.392Z,20.80
2022-09-10T11:10:20.082Z,25.20
2022-09-10T11:12:51.388Z,20.23
2022-09-10T11:15:18.236Z,22.37
2022-09-10T11:17:48.840Z,20.10
2022-09-10T11:20:28.473Z,18.77
2022-09-10T11:23:00.356Z,27.40
2022-09-10T11:25:28.135Z,18.90
2022-09-10T11:27:56.155Z,19.77
2022-09-10T11:30:23.337Z,21.00
2022-09-10T11:33:00.714Z,20.17
2022-09-10T11:35:27.522Z,21.20
2022-09-10T11:38:03.681Z,18.40
2022-09-10T11:40:42.811Z,17.83
2022-09-10T11:43:20.274Z,18.13
2022-09-10T11:45:49.808Z,19.70
2022-09-10T11:48:18.378Z,17.17
2022-09-10T11:50:47.140Z,15.10
2022-09-10T11:53:14.365Z,17.00
2022-09-10T11:55:44.263Z,17.63
2022-09-10T11:58:13.129Z,20.17
2022-09-10T12:00:52.809Z,20.63
2022-09-10T12:03:30.120Z,22.00
2022-09-10T12:06:00.411Z,16.03
2022-09-10T12:08:30.819Z,20.77
2022-09-10T12:11:04.784Z,16.70
2022-09-10T12:13:34.541Z,20.90
2022-09-10T12:16:02.547Z,21.73
2022-09-10T12:18:30.727Z,18.57
2022-09-10T12:21:08.377Z,17.33
2022-09-10T12:23:39.901Z,19.20
2022-09-10T12:26:06.820Z,17.97
2022-09-10T12:28:42.576Z,15.30
2022-09-10T12:31:09.938Z,20.83
2022-09-10T12:33:57.798Z,20.10
2022-09-10T12:36:27.479Z,23.87
2022-09-10T12:39:13.137Z,19.73
2022-09-10T12:41:40.122Z,19.93
2022-09-10T12:44:26.789Z,19.80
2022-09-10T12:47:12.266Z,19.53
2022-09-10T12:49:49.531Z,19.40
2022-09-10T12:52:18.241Z,19.37
2022-09-10T12:55:01.041Z,17.60
2022-09-10T12:57:30.761Z,19.17
2022-09-10T13:00:00.785Z,19.50
2022-09-10T13:02:31.959Z,21.07
2022-09-10T13:05:00.154Z,20.23
2022-09-10T13:07:34.284Z,22.13
2022-09-10T13:10:16.437Z,24.20
2022-09-10T13:12:46.658Z,24.03
2022-09-10T13:15:17.901Z,22.83
2022-09-10T13:17:47.758Z,22.47
2022-09-10T13:20:14.498Z,22.63
2022-09-10T13:23:04.254Z,21.40
2022-09-10T13:25:40.178Z,20.43
2022-09-10T13:28:25.973Z,22.27
2022-09-10T13:31:03.235Z,23.70
2022-09-10T13:33:30.329Z,24.93
2022-09-10T13:35:57.388Z,24.23
2022-09-10T13:38:44.697Z,25.03
2022-09-10T13:41:11.581Z,25.73
2022-09-10T13:43:41.794Z,24.50
2022-09-10T13:46:10.235Z,27.83
2022-09-10T13:48:44.041Z,26.80
2022-09-10T13:51:23.741Z,27.50
2022-09-10T13:53:50.472Z,27.63
2022-09-10T13:56:21.771Z,27.80
2022-09-10T13:58:49.284Z,26.50
2022-09-10T14:01:16.139Z,28.57
2022-09-10T14:03:45.002Z,27.47
2022-09-10T14:06:12.320Z,26.53
2022-09-10T14:08:42.325Z,24.47
2022-09-10T14:11:12.002Z,23.87
2022-09-10T14:13:57.946Z,24.17
2022-09-10T14:16:35.868Z,27.73
2022-09-10T14:19:03.219Z,32.30
2022-09-10T14:21:34.439Z,34.50
2022-09-10T14:24:01.567Z,39.33
2022-09-10T14:26:30.210Z,29.70
2022-09-10T14:28:58.990Z,25.77
2022-09-10T14:31:26.335Z,25.97
2022-09-10T14:33:58.501Z,25.30
2022-09-10T14:36:29.488Z,23.97
2022-09-10T14:39:01.127Z,23.47
2022-09-10T14:41:28.466Z,23.90
2022-09-10T14:44:14.358Z,24.20
2022-09-10T14:46:54.187Z,28.17
2022-09-10T14:49:28.095Z,24.97
2022-09-10T14:51:55.446Z,24.97
2022-09-10T14:54:22.848Z,28.30
2022-09-10T14:56:49.635Z,28.87
2022-09-10T14:59:17.276Z,30.53
2022-09-10T15:01:48.699Z,28.83
2022-09-10T15:04:16.460Z,30.30
2022-09-10T15:06:45.864Z,29.60
2022-09-10T15:09:13.216Z,28.10
2022-09-10T15:11:41.885Z,28.03
2022-09-10T15:14:09.970Z,27.20
2022-09-10T15:16:37.189Z,28.57
2022-09-10T15:19:04.257Z,27.67
2022-09-10T15:21:31.399Z,24.60
2022-09-10T15:23:58.408Z,25.13
2022-09-10T15:26:25.566Z,25.53
2022-09-10T15:28:53.972Z,27.87
2022-09-10T15:31:20.761Z,33.47
2022-09-10T15:33:47.592Z,31.23
2022-09-10T15:36:14.523Z,46.37
2022-09-10T15:38:41.274Z,49.03
2022-09-10T15:41:12.743Z,57.03
2022-09-10T15:43:41.450Z,44.93
2022-09-10T15:46:08.128Z,39.73
2022-09-10T15:48:34.945Z,34.53
2022-09-10T15:51:03.037Z,35.47
2022-09-10T15:53:32.166Z,27.00
2022-09-10T15:55:59.591Z,25.87
2022-09-10T15:58:26.318Z,27.03
2022-09-10T16:00:53.211Z,31.03
2022-09-10T16:03:20.661Z,28.63
2022-09-10T16:05:47.373Z,27.83
2022-09-10T16:08:14.282Z,30.53
2022-09-10T16:10:41.105Z,29.33
2022-09-10T16:13:07.819Z,25.60
2022-09-10T16:15:36.090Z,24.40
2022-09-10T16:18:03.083Z,25.07
2022-09-10T16:20:29.988Z,26.97
2022-09-10T16:22:58.325Z,24.30
2022-09-10T16:25:25.498Z,25.87
2022-09-10T16:27:52.436Z,24.97
2022-09-10T16:30:19.331Z,28.03
2022-09-10T16:32:46.372Z,26.40
2022-09-10T16:35:13.251Z,25.73
2022-09-10T16:37:40.130Z,26.60
2022-09-10T16:40:07.377Z,32.50
2022-09-10T16:42:35.502Z,32.23
2022-09-10T16:45:02.222Z,33.80
2022-09-10T16:47:28.949Z,36.03
2022-09-10T16:49:55.680Z,30.27
2022-09-10T16:52:25.693Z,32.93
2022-09-10T16:54:52.974Z,38.23
2022-09-10T16:57:21.380Z,41.27
2022-09-10T16:59:48.355Z,34.23
2022-09-10T17:02:15.924Z,35.23
2022-09-10T17:04:42.737Z,33.97
2022-09-10T17:07:10.534Z,34.53
2022-09-10T17:09:37.399Z,35.27
2022-09-10T17:12:04.642Z,30.73
2022-09-10T17:14:31.421Z,33.53
2022-09-10T17:16:58.703Z,30.37
2022-09-10T17:19:26.630Z,38.40
2022-09-10T17:21:55.644Z,42.23
2022-09-10T17:24:23.235Z,37.10
2022-09-10T17:26:50.465Z,38.90
2022-09-10T17:29:18.012Z,36.97
2022-09-10T17:31:46.297Z,45.03
2022-09-10T17:34:13.318Z,36.10
2022-09-10T17:36:40.719Z,37.03
2022-09-10T17:39:08.404Z,35.93
2022-09-10T17:41:35.376Z,36.67
2022-09-10T17:44:02.522Z,32.60
2022-09-10T17:46:31.270Z,34.93
2022-09-10T17:48:58.232Z,39.07
2022-09-10T17:51:25.744Z,36.13
2022-09-10T17:53:53.790Z,36.77
2022-09-10T17:56:20.749Z,36.03
2022-09-10T17:58:47.966Z,57.53
2022-09-10T18:01:23.276Z,51.93
2022-09-10T18:03:51.488Z,37.63
2022-09-10T18:06:18.440Z,29.00
2022-09-10T18:08:45.481Z,32.60
2022-09-10T18:11:16.535Z,30.83
2022-09-10T18:13:44.690Z,30.60
2022-09-10T18:19:28.045Z,31.07
2022-09-10T18:21:54.759Z,29.60
2022-09-10T18:24:27.399Z,29.77
2022-09-10T18:26:54.816Z,30.60
2022-09-10T18:29:22.921Z,29.93
2022-09-10T18:31:51.273Z,30.67
2022-09-10T18:34:22.959Z,30.20
2022-09-10T18:36:53.596Z,35.10
2022-09-10T18:39:20.666Z,34.60
2022-09-10T18:41:47.492Z,34.60
2022-09-10T18:44:18.628Z,37.40
2022-09-10T18:46:46.046Z,34.80
2022-09-10T18:49:16.830Z,35.07
2022-09-10T18:51:47.590Z,37.23
2022-09-10T18:54:15.243Z,36.10
2022-09-10T18:56:42.310Z,35.03
2022-09-10T18:59:12.876Z,37.20
2022-09-10T19:01:40.674Z,36.43
2022-09-10T19:04:07.884Z,34.67
2022-09-10T19:06:35.623Z,30.97
2022-09-10T19:09:06.873Z,35.23
2022-09-10T19:11:34.700Z,54.90
2022-09-10T19:14:02.129Z,45.60
2022-09-10T19:16:29.692Z,40.47
2022-09-10T19:18:57.907Z,40.87
2022-09-10T19:21:24.975Z,36.13
2022-09-10T19:23:53.421Z,36.93
2022-09-10T19:26:23.829Z,36.57
2022-09-10T19:28:51.044Z,36.57
2022-09-10T19:31:19.597Z,61.07
2022-09-10T19:33:46.612Z,54.03
2022-09-10T19:36:14.583Z,79.97
2022-09-10T19:38:43.467Z,102.97
2022-09-10T19:41:12.218Z,92.90
2022-09-10T19:43:39.141Z,90.23
2022-09-10T19:46:06.690Z,86.80
2022-09-10T19:48:33.664Z,48.63
2022-09-10T19:51:01.937Z,53.37
2022-09-10T19:53:30.759Z,40.33
2022-09-10T19:56:11.368Z,44.10
2022-09-10T19:58:42.421Z,37.27
2022-09-10T20:01:09.458Z,37.83
2022-09-10T20:03:41.169Z,41.43
2022-09-10T20:06:07.996Z,44.80
2022-09-10T20:08:35.229Z,46.57
2022-09-10T20:11:02.391Z,77.80
2022-09-10T20:13:31.667Z,47.43
2022-09-10T20:16:02.848Z,46.30
2022-09-10T20:18:30.691Z,25.13
2022-09-10T20:21:07.808Z,23.97
2022-09-10T20:23:36.215Z,22.87
2022-09-10T20:26:10.638Z,24.73
2022-09-10T20:28:38.391Z,37.53
2022-09-10T20:31:11.368Z,46.00
2022-09-10T20:33:38.725Z,23.80
2022-09-10T20:36:06.187Z,60.13
2022-09-10T20:38:34.850Z,70.90
2022-09-10T20:41:01.601Z,57.90
2022-09-10T20:43:28.850Z,31.00
2022-09-10T20:45:57.232Z,83.23
2022-09-10T20:48:26.891Z,67.23
2022-09-10T20:50:54.487Z,57.57
2022-09-10T20:53:21.304Z,38.63
2022-09-10T20:55:48.317Z,36.90
2022-09-10T20:58:15.435Z,45.97
2022-09-10T21:00:43.223Z,27.50
2022-09-10T21:03:10.186Z,40.27
2022-09-10T21:05:36.866Z,44.67
2022-09-10T21:08:04.170Z,28.67
2022-09-10T21:10:32.104Z,34.90
2022-09-10T21:12:59.287Z,35.23
2022-09-10T21:15:26.295Z,32.63
2022-09-10T21:17:53.198Z,22.53
2022-09-10T21:20:19.937Z,30.90
2022-09-10T21:22:46.803Z,31.87
2022-09-10T21:25:14.369Z,32.83
2022-09-10T21:27:42.447Z,28.83
2022-09-10T21:30:09.442Z,31.53
2022-09-10T21:32:36.793Z,29.27
2022-09-10T21:35:03.824Z,26.77
2022-09-10T21:37:30.635Z,28.47
2022-09-10T21:42:42.467Z,30.90
2022-09-10T21:47:58.306Z,26.83
2022-09-10T21:53:11.222Z,29.77
2022-09-10T21:55:37.871Z,31.30
2022-09-10T21:58:05.215Z,28.10
2022-09-10T22:00:31.861Z,34.23
2022-09-10T22:02:58.672Z,31.10
2022-09-10T22:05:25.278Z,29.97
2022-09-10T22:07:53.052Z,28.00
2022-09-10T22:10:19.964Z,27.87
2022-09-10T22:12:46.716Z,31.53
2022-09-10T22:15:13.486Z,28.77
2022-09-10T22:17:40.214Z,30.23
2022-09-10T22:20:07.352Z,27.43
2022-09-10T22:22:34.284Z,30.10
2022-09-10T22:25:01.261Z,27.10
2022-09-10T22:27:27.941Z,26.13
2022-09-10T22:29:56.416Z,25.60
2022-09-10T22:32:23.413Z,28.90
2022-09-10T22:34:50.398Z,27.47
2022-09-10T22:37:17.973Z,25.00
2022-09-10T22:39:44.652Z,25.57
2022-09-10T22:42:12.580Z,26.37
2022-09-10T22:44:39.159Z,25.90
2022-09-10T22:47:05.863Z,26.77
2022-09-10T22:49:32.458Z,28.93
2022-09-10T22:51:59.086Z,27.80
2022-09-10T22:54:25.712Z,27.20
2022-09-10T22:56:52.427Z,27.77
2022-09-10T22:59:19.029Z,30.60
2022-09-10T23:04:32.639Z,28.87
2022-09-10T23:06:59.269Z,28.30
2022-09-10T23:09:26.317Z,30.33
2022-09-10T23:11:52.926Z,30.63
2022-09-10T23:14:20.825Z,29.97
2022-09-10T23:16:51.831Z,29.73
2022-09-10T23:19:19.692Z,32.00
2022-09-10T23:21:46.789Z,32.03
2022-09-10T23:24:14.253Z,31.40
2022-09-10T23:26:41.430Z,36.73
2022-09-10T23:29:08.191Z,32.37
2022-09-10T23:31:35.529Z,29.50
2022-09-10T23:34:05.089Z,29.83
2022-09-10T23:36:32.444Z,30.00
2022-09-10T23:38:59.329Z,34.27
2022-09-10T23:41:26.044Z,34.70
2022-09-10T23:43:52.702Z,32.27
2022-09-10T23:46:19.371Z,29.57
2022-09-10T23:48:46.396Z,30.03
2022-09-10T23:51:13.697Z,30.23
2022-09-10T23:53:40.528Z,29.53
2022-09-10T23:56:07.296Z,30.83
2022-09-10T23:58:34.066Z,31.57
